SUR4070 SPJC-SERO
Flight info
| Callsign | SUR4070 |
|---|---|
| Flight time | N/A |
| Altitude | 22000 |
| Route | GAVO3F BTE UV1 TRU UL780 VAKUD |
| Aircraft | DH8D/M-SDE3FGHIRWY/LB1 |
Departure
| Time | 2026-05-06 21:45 |
|---|---|
| Airport | Jorge Chávez International Airport (SPJC) |
Arrival
| Time | N/A |
|---|---|
| Airport | Santa Rosa - Artillery Colonel Victor Larrea International Airport (SERO) |
| Time | Latitude | Longitude | Altitude | Speed | Heading |
|---|---|---|---|---|---|
| 2026-05-06 21:34 | -12.00921 | -77.11749 | 132 ft | 0 kts | 334° |
| 2026-05-06 21:41 | -12.00909 | -77.11755 | 131 ft | 5 kts | 329° |
| 2026-05-06 21:42 | -12.00874 | -77.11782 | 131 ft | 6 kts | 315° |
| 2026-05-06 21:42 | -12.00850 | -77.11824 | 131 ft | 7 kts | 288° |
| 2026-05-06 21:42 | -12.00838 | -77.11874 | 131 ft | 7 kts | 301° |
| 2026-05-06 21:42 | -12.00792 | -77.11910 | 131 ft | 8 kts | 332° |
| 2026-05-06 21:43 | -12.00750 | -77.11933 | 131 ft | 4 kts | 332° |
| 2026-05-06 21:43 | -12.00714 | -77.11953 | 131 ft | 7 kts | 332° |
| 2026-05-06 21:43 | -12.00685 | -77.11971 | 131 ft | 5 kts | 315° |
| 2026-05-06 21:43 | -12.00670 | -77.12011 | 131 ft | 6 kts | 272° |
| 2026-05-06 21:44 | -12.00681 | -77.12055 | 131 ft | 6 kts | 248° |
| 2026-05-06 21:44 | -12.00710 | -77.12085 | 131 ft | 5 kts | 203° |
| 2026-05-06 21:44 | -12.00749 | -77.12100 | 131 ft | 5 kts | 198° |
| 2026-05-06 21:44 | -12.00783 | -77.12109 | 131 ft | 4 kts | 186° |
| 2026-05-06 21:45 | -12.00875 | -77.12080 | 131 ft | 26 kts | 155° |
| 2026-05-06 21:45 | -12.01136 | -77.11957 | 131 ft | 67 kts | 160° |
| 2026-05-06 21:45 | -12.01930 | -77.11571 | 225 ft | 169 kts | 157° |
| 2026-05-06 21:45 | -12.03176 | -77.11023 | 880 ft | 216 kts | 151° |
| 2026-05-06 21:46 | -12.04494 | -77.10111 | 1544 ft | 243 kts | 150° |
| 2026-05-06 21:46 | -12.06021 | -77.09520 | 2010 ft | 218 kts | 164° |
| 2026-05-06 21:46 | -12.07415 | -77.09073 | 2457 ft | 210 kts | 159° |
| 2026-05-06 21:46 | -12.08794 | -77.08492 | 2955 ft | 219 kts | 156° |
| 2026-05-06 21:47 | -12.10254 | -77.07863 | 3467 ft | 231 kts | 157° |
| 2026-05-06 21:47 | -12.11748 | -77.07237 | 3958 ft | 237 kts | 156° |
| 2026-05-06 21:47 | -12.13300 | -77.06574 | 4463 ft | 241 kts | 157° |
| 2026-05-06 21:47 | -12.14934 | -77.06306 | 4915 ft | 248 kts | 190° |
| 2026-05-06 21:48 | -12.16238 | -77.07410 | 5387 ft | 254 kts | 248° |
| 2026-05-06 21:48 | -12.16246 | -77.09169 | 5900 ft | 254 kts | 281° |
| 2026-05-06 21:48 | -12.15968 | -77.10958 | 6394 ft | 257 kts | 273° |
| 2026-05-06 21:48 | -12.15940 | -77.12799 | 6878 ft | 260 kts | 269° |
| 2026-05-06 21:49 | -12.15928 | -77.14644 | 7359 ft | 263 kts | 270° |
| 2026-05-06 21:49 | -12.15886 | -77.16523 | 7843 ft | 266 kts | 271° |
| 2026-05-06 21:49 | -12.15833 | -77.18416 | 8324 ft | 268 kts | 271° |
| 2026-05-06 21:49 | -12.15776 | -77.20296 | 8813 ft | 269 kts | 271° |
| 2026-05-06 21:50 | -12.15720 | -77.22198 | 9269 ft | 270 kts | 271° |
| 2026-05-06 21:50 | -12.15663 | -77.24137 | 9731 ft | 271 kts | 271° |
| 2026-05-06 21:50 | -12.15611 | -77.26116 | 10260 ft | 270 kts | 269° |
| 2026-05-06 21:50 | -12.15669 | -77.28021 | 10740 ft | 269 kts | 265° |
| 2026-05-06 21:51 | -12.15780 | -77.29971 | 11231 ft | 276 kts | 266° |
| 2026-05-06 21:51 | -12.15865 | -77.31935 | 11686 ft | 284 kts | 266° |
| 2026-05-06 21:51 | -12.15931 | -77.33989 | 12188 ft | 290 kts | 267° |
| 2026-05-06 21:51 | -12.15983 | -77.36047 | 12668 ft | 297 kts | 268° |
| 2026-05-06 21:52 | -12.16032 | -77.38084 | 13118 ft | 300 kts | 268° |
| 2026-05-06 21:52 | -12.16083 | -77.40221 | 13576 ft | 305 kts | 268° |
| 2026-05-06 21:52 | -12.16136 | -77.42459 | 14069 ft | 310 kts | 268° |
| 2026-05-06 21:52 | -12.16187 | -77.44679 | 14547 ft | 316 kts | 268° |
| 2026-05-06 21:53 | -12.16228 | -77.46925 | 15023 ft | 321 kts | 269° |
| 2026-05-06 21:53 | -12.15800 | -77.49170 | 15451 ft | 326 kts | 298° |
| 2026-05-06 21:53 | -12.14082 | -77.50581 | 15893 ft | 325 kts | 345° |
| 2026-05-06 21:53 | -12.11883 | -77.50446 | 16400 ft | 321 kts | 15° |
| 2026-05-06 21:54 | -12.09666 | -77.49906 | 16890 ft | 326 kts | 9° |
| 2026-05-06 21:54 | -12.07373 | -77.49821 | 17364 ft | 332 kts | 360° |
| 2026-05-06 21:54 | -12.05079 | -77.49926 | 17820 ft | 336 kts | 358° |
| 2026-05-06 21:54 | -12.02706 | -77.50035 | 18293 ft | 340 kts | 358° |
| 2026-05-06 21:55 | -12.00332 | -77.50147 | 18768 ft | 343 kts | 358° |
| 2026-05-06 21:55 | -11.97957 | -77.50272 | 19234 ft | 345 kts | 358° |
| 2026-05-06 21:55 | -11.95509 | -77.50411 | 19706 ft | 348 kts | 358° |
| 2026-05-06 21:55 | -11.93113 | -77.50553 | 20156 ft | 350 kts | 357° |
| 2026-05-06 21:56 | -11.90640 | -77.50707 | 20634 ft | 352 kts | 357° |
| 2026-05-06 21:56 | -11.88203 | -77.50863 | 21095 ft | 354 kts | 356° |
| 2026-05-06 21:56 | -11.85712 | -77.51026 | 21568 ft | 356 kts | 356° |
| 2026-05-06 21:56 | -11.83220 | -77.51194 | 21872 ft | 362 kts | 356° |
| 2026-05-06 21:57 | -11.80668 | -77.51381 | 21958 ft | 372 kts | 355° |
| 2026-05-06 21:57 | -11.78109 | -77.51870 | 21967 ft | 370 kts | 345° |
| 2026-05-06 21:57 | -11.75722 | -77.52820 | 21937 ft | 349 kts | 333° |
| 2026-05-06 21:57 | -11.73794 | -77.54200 | 21939 ft | 337 kts | 318° |
| 2026-05-06 21:58 | -11.72334 | -77.56050 | 21950 ft | 327 kts | 301° |
| 2026-05-06 21:58 | -11.71452 | -77.58185 | 21973 ft | 328 kts | 290° |
| 2026-05-06 21:58 | -11.70664 | -77.60370 | 21966 ft | 333 kts | 292° |
| 2026-05-06 21:58 | -11.69710 | -77.62550 | 21963 ft | 336 kts | 296° |
| 2026-05-06 21:59 | -11.68654 | -77.64687 | 21959 ft | 339 kts | 298° |
| 2026-05-06 21:59 | -11.67527 | -77.66808 | 21952 ft | 341 kts | 300° |
| 2026-05-06 21:59 | -11.66344 | -77.68926 | 21959 ft | 343 kts | 301° |
| 2026-05-06 21:59 | -11.65141 | -77.71011 | 21947 ft | 344 kts | 302° |
| 2026-05-06 22:00 | -11.63911 | -77.73093 | 21954 ft | 345 kts | 302° |
| 2026-05-06 22:00 | -11.62658 | -77.75184 | 21955 ft | 345 kts | 302° |
| 2026-05-06 22:00 | -11.61383 | -77.77284 | 21955 ft | 346 kts | 302° |
| 2026-05-06 22:00 | -11.60113 | -77.79363 | 21953 ft | 347 kts | 303° |
| 2026-05-06 22:01 | -11.58837 | -77.81441 | 21954 ft | 347 kts | 303° |
| 2026-05-06 22:01 | -11.57534 | -77.83551 | 21951 ft | 347 kts | 303° |
| 2026-05-06 22:01 | -11.56254 | -77.85619 | 21943 ft | 348 kts | 303° |
| 2026-05-06 22:01 | -11.54966 | -77.87696 | 21941 ft | 346 kts | 303° |
| 2026-05-06 22:02 | -11.53668 | -77.89771 | 21955 ft | 346 kts | 304° |
| 2026-05-06 22:02 | -11.52005 | -77.91505 | 21909 ft | 344 kts | 330° |
| 2026-05-06 22:02 | -11.49713 | -77.92139 | 21970 ft | 341 kts | 352° |
| 2026-05-06 22:02 | -11.47362 | -77.92587 | 21952 ft | 342 kts | 347° |
| 2026-05-06 22:03 | -11.45040 | -77.93214 | 21936 ft | 343 kts | 345° |
| 2026-05-06 22:03 | -11.42746 | -77.93841 | 21934 ft | 343 kts | 345° |
| 2026-05-06 22:03 | -11.40462 | -77.94448 | 21944 ft | 343 kts | 346° |
| 2026-05-06 22:03 | -11.38142 | -77.95056 | 21939 ft | 343 kts | 346° |
| 2026-05-06 22:04 | -11.35829 | -77.95656 | 21936 ft | 344 kts | 346° |
| 2026-05-06 22:04 | -11.33479 | -77.96259 | 21920 ft | 344 kts | 346° |
| 2026-05-06 22:04 | -11.31165 | -77.96847 | 21924 ft | 344 kts | 346° |
| 2026-05-06 22:04 | -11.28837 | -77.97438 | 21940 ft | 343 kts | 346° |
| 2026-05-06 22:05 | -11.26504 | -77.98030 | 21936 ft | 344 kts | 346° |
| 2026-05-06 22:05 | -11.24189 | -77.98617 | 21941 ft | 343 kts | 346° |
| 2026-05-06 22:05 | -11.21878 | -77.99201 | 21934 ft | 343 kts | 346° |
| 2026-05-06 22:05 | -11.19525 | -77.99797 | 21932 ft | 343 kts | 346° |
| 2026-05-06 22:06 | -11.17222 | -78.00380 | 21927 ft | 344 kts | 346° |
| 2026-05-06 22:06 | -11.14879 | -78.00974 | 21926 ft | 344 kts | 346° |
| 2026-05-06 22:06 | -11.12553 | -78.01561 | 21925 ft | 344 kts | 346° |
| 2026-05-06 22:06 | -11.10212 | -78.02149 | 21924 ft | 344 kts | 346° |
| 2026-05-06 22:07 | -11.07891 | -78.02733 | 21927 ft | 344 kts | 346° |
| 2026-05-06 22:07 | -11.05554 | -78.03321 | 21923 ft | 344 kts | 346° |
| 2026-05-06 22:07 | -11.03232 | -78.03903 | 21923 ft | 344 kts | 346° |
| 2026-05-06 22:07 | -11.00899 | -78.04490 | 21939 ft | 344 kts | 346° |
| 2026-05-06 22:08 | -10.98569 | -78.05076 | 21925 ft | 343 kts | 346° |
| 2026-05-06 22:08 | -10.96260 | -78.05656 | 21927 ft | 343 kts | 346° |
| 2026-05-06 22:08 | -10.93909 | -78.06248 | 21922 ft | 343 kts | 346° |
| 2026-05-06 22:08 | -10.91609 | -78.06831 | 21923 ft | 344 kts | 346° |
| 2026-05-06 22:09 | -10.89269 | -78.07424 | 21925 ft | 343 kts | 346° |
| 2026-05-06 22:09 | -10.86927 | -78.08015 | 21922 ft | 344 kts | 346° |
| 2026-05-06 22:09 | -10.84612 | -78.08599 | 21911 ft | 344 kts | 346° |
| 2026-05-06 22:09 | -10.82257 | -78.09191 | 21920 ft | 344 kts | 346° |
| 2026-05-06 22:10 | -10.79949 | -78.09773 | 21920 ft | 344 kts | 346° |
| 2026-05-06 22:10 | -10.77609 | -78.10364 | 21923 ft | 344 kts | 346° |
| 2026-05-06 22:10 | -10.75272 | -78.10950 | 21920 ft | 344 kts | 346° |
| 2026-05-06 22:10 | -10.72945 | -78.11536 | 21914 ft | 343 kts | 346° |
| 2026-05-06 22:11 | -10.70627 | -78.12118 | 21921 ft | 343 kts | 346° |
| 2026-05-06 22:11 | -10.68297 | -78.12704 | 21920 ft | 342 kts | 346° |
| 2026-05-06 22:11 | -10.65989 | -78.13285 | 21919 ft | 342 kts | 346° |
| 2026-05-06 22:11 | -10.63671 | -78.13868 | 21918 ft | 342 kts | 346° |
| 2026-05-06 22:12 | -10.61347 | -78.14452 | 21917 ft | 343 kts | 346° |
| 2026-05-06 22:12 | -10.59013 | -78.15039 | 21916 ft | 343 kts | 346° |
| 2026-05-06 22:12 | -10.56686 | -78.15623 | 21914 ft | 343 kts | 346° |
| 2026-05-06 22:12 | -10.54363 | -78.16206 | 21915 ft | 342 kts | 346° |
| 2026-05-06 22:13 | -10.52037 | -78.16791 | 21917 ft | 343 kts | 346° |
| 2026-05-06 22:13 | -10.49744 | -78.17369 | 21917 ft | 342 kts | 346° |
| 2026-05-06 22:13 | -10.47401 | -78.17957 | 21917 ft | 342 kts | 346° |
| 2026-05-06 22:13 | -10.45083 | -78.18540 | 21915 ft | 342 kts | 346° |
| 2026-05-06 22:14 | -10.42778 | -78.19121 | 21913 ft | 342 kts | 346° |
| 2026-05-06 22:14 | -10.40447 | -78.19707 | 21919 ft | 342 kts | 346° |
| 2026-05-06 22:14 | -10.38144 | -78.20287 | 21927 ft | 342 kts | 346° |
| 2026-05-06 22:14 | -10.35811 | -78.20873 | 21923 ft | 342 kts | 346° |
| 2026-05-06 22:15 | -10.33505 | -78.21451 | 21925 ft | 341 kts | 346° |
| 2026-05-06 22:15 | -10.31203 | -78.22028 | 21928 ft | 342 kts | 346° |
| 2026-05-06 22:15 | -10.28869 | -78.22614 | 21925 ft | 342 kts | 346° |
| 2026-05-06 22:15 | -10.26552 | -78.23196 | 21928 ft | 342 kts | 346° |
| 2026-05-06 22:16 | -10.24238 | -78.23776 | 21931 ft | 342 kts | 346° |
| 2026-05-06 22:16 | -10.21935 | -78.24354 | 21924 ft | 342 kts | 346° |
| 2026-05-06 22:16 | -10.19605 | -78.24939 | 21923 ft | 342 kts | 346° |
| 2026-05-06 22:16 | -10.17308 | -78.25513 | 21924 ft | 341 kts | 346° |
| 2026-05-06 22:17 | -10.14944 | -78.26105 | 21930 ft | 342 kts | 346° |
| 2026-05-06 22:17 | -10.12627 | -78.26688 | 21927 ft | 342 kts | 346° |
| 2026-05-06 22:17 | -10.10281 | -78.27277 | 21926 ft | 342 kts | 346° |
| 2026-05-06 22:17 | -10.07968 | -78.27857 | 21925 ft | 342 kts | 346° |
| 2026-05-06 22:18 | -10.05640 | -78.28439 | 21926 ft | 343 kts | 346° |
| 2026-05-06 22:18 | -10.03308 | -78.29020 | 21925 ft | 343 kts | 346° |
| 2026-05-06 22:18 | -10.01010 | -78.29592 | 21919 ft | 343 kts | 346° |
| 2026-05-06 22:18 | -9.98667 | -78.30176 | 21923 ft | 342 kts | 346° |
| 2026-05-06 22:19 | -9.96365 | -78.30750 | 21936 ft | 341 kts | 346° |
| 2026-05-06 22:19 | -9.94049 | -78.31332 | 21928 ft | 341 kts | 346° |
| 2026-05-06 22:19 | -9.91727 | -78.31915 | 21941 ft | 342 kts | 346° |
| 2026-05-06 22:19 | -9.89408 | -78.32498 | 21938 ft | 342 kts | 346° |
| 2026-05-06 22:20 | -9.87101 | -78.33076 | 21939 ft | 342 kts | 347° |
| 2026-05-06 22:20 | -9.84780 | -78.33657 | 21947 ft | 341 kts | 346° |
| 2026-05-06 22:20 | -9.82481 | -78.34234 | 21945 ft | 340 kts | 346° |
| 2026-05-06 22:20 | -9.80183 | -78.34816 | 21952 ft | 340 kts | 346° |
| 2026-05-06 22:21 | -9.77877 | -78.35396 | 21949 ft | 341 kts | 347° |
| 2026-05-06 22:21 | -9.75542 | -78.35979 | 21953 ft | 341 kts | 347° |
| 2026-05-06 22:21 | -9.73252 | -78.36550 | 21960 ft | 342 kts | 347° |
| 2026-05-06 22:21 | -9.70909 | -78.37133 | 21952 ft | 342 kts | 347° |
| 2026-05-06 22:22 | -9.68597 | -78.37708 | 21956 ft | 343 kts | 347° |
| 2026-05-06 22:22 | -9.66284 | -78.38282 | 21957 ft | 343 kts | 347° |
| 2026-05-06 22:22 | -9.63941 | -78.38864 | 21943 ft | 344 kts | 347° |
| 2026-05-06 22:22 | -9.61635 | -78.39437 | 21951 ft | 343 kts | 347° |
| 2026-05-06 22:23 | -9.59288 | -78.40022 | 21958 ft | 343 kts | 347° |
| 2026-05-06 22:23 | -9.56964 | -78.40603 | 21966 ft | 342 kts | 347° |
| 2026-05-06 22:23 | -9.54656 | -78.41180 | 21957 ft | 342 kts | 347° |
| 2026-05-06 22:23 | -9.52346 | -78.41757 | 21964 ft | 342 kts | 347° |
| 2026-05-06 22:24 | -9.50028 | -78.42339 | 21974 ft | 342 kts | 347° |
| 2026-05-06 22:24 | -9.47726 | -78.42915 | 21964 ft | 342 kts | 347° |
| 2026-05-06 22:24 | -9.45410 | -78.43493 | 21968 ft | 342 kts | 347° |
| 2026-05-06 22:24 | -9.43074 | -78.44076 | 21984 ft | 342 kts | 347° |
| 2026-05-06 22:25 | -9.40752 | -78.44657 | 21980 ft | 343 kts | 347° |
| 2026-05-06 22:25 | -9.38440 | -78.45233 | 21973 ft | 344 kts | 347° |
| 2026-05-06 22:25 | -9.36101 | -78.45814 | 21966 ft | 344 kts | 347° |
| 2026-05-06 22:25 | -9.33751 | -78.46396 | 21980 ft | 343 kts | 347° |
| 2026-05-06 22:26 | -9.31441 | -78.46968 | 21987 ft | 344 kts | 347° |
| 2026-05-06 22:26 | -9.29105 | -78.47548 | 21993 ft | 343 kts | 347° |
| 2026-05-06 22:26 | -9.26859 | -78.48106 | 21972 ft | 343 kts | 347° |
| 2026-05-06 22:26 | -9.24642 | -78.48659 | 21971 ft | 342 kts | 347° |
| 2026-05-06 22:27 | -9.22329 | -78.49236 | 21974 ft | 343 kts | 347° |
| 2026-05-06 22:27 | -9.19991 | -78.49819 | 21966 ft | 344 kts | 347° |
| 2026-05-06 22:27 | -9.17651 | -78.50400 | 21959 ft | 344 kts | 347° |
| 2026-05-06 22:27 | -9.15344 | -78.50980 | 21969 ft | 344 kts | 346° |
| 2026-05-06 22:28 | -9.13088 | -78.51855 | 21974 ft | 345 kts | 335° |
| 2026-05-06 22:28 | -9.10969 | -78.53041 | 21958 ft | 347 kts | 331° |
| 2026-05-06 22:28 | -9.08883 | -78.54240 | 21974 ft | 346 kts | 332° |
| 2026-05-06 22:28 | -9.06764 | -78.55436 | 21984 ft | 346 kts | 332° |
| 2026-05-06 22:29 | -9.04649 | -78.56623 | 21976 ft | 346 kts | 332° |
| 2026-05-06 22:29 | -9.02540 | -78.57803 | 21954 ft | 346 kts | 332° |
| 2026-05-06 22:29 | -9.00433 | -78.58981 | 21969 ft | 345 kts | 332° |
| 2026-05-06 22:29 | -8.98325 | -78.60162 | 22012 ft | 344 kts | 332° |
| 2026-05-06 22:30 | -8.96226 | -78.61342 | 21999 ft | 345 kts | 332° |
| 2026-05-06 22:30 | -8.94143 | -78.62508 | 22011 ft | 345 kts | 332° |
| 2026-05-06 22:30 | -8.92007 | -78.63702 | 21995 ft | 345 kts | 332° |
| 2026-05-06 22:30 | -8.89928 | -78.64863 | 22003 ft | 345 kts | 332° |
| 2026-05-06 22:31 | -8.87806 | -78.66048 | 22006 ft | 345 kts | 333° |
| 2026-05-06 22:31 | -8.85707 | -78.67222 | 22000 ft | 345 kts | 333° |
| 2026-05-06 22:31 | -8.83605 | -78.68394 | 21969 ft | 345 kts | 333° |
| 2026-05-06 22:31 | -8.81467 | -78.69587 | 21972 ft | 346 kts | 333° |
| 2026-05-06 22:32 | -8.79364 | -78.70760 | 21984 ft | 345 kts | 333° |
| 2026-05-06 22:32 | -8.77250 | -78.71939 | 21985 ft | 345 kts | 333° |
| 2026-05-06 22:32 | -8.75139 | -78.73115 | 22004 ft | 344 kts | 333° |
| 2026-05-06 22:32 | -8.73066 | -78.74272 | 22012 ft | 344 kts | 333° |
| 2026-05-06 22:33 | -8.70929 | -78.75466 | 21970 ft | 345 kts | 333° |
| 2026-05-06 22:33 | -8.68846 | -78.76628 | 21990 ft | 344 kts | 333° |
| 2026-05-06 22:33 | -8.66752 | -78.77798 | 21997 ft | 345 kts | 333° |
| 2026-05-06 22:33 | -8.64616 | -78.78989 | 21965 ft | 346 kts | 333° |
| 2026-05-06 22:34 | -8.62514 | -78.80157 | 21965 ft | 346 kts | 333° |
| 2026-05-06 22:34 | -8.60400 | -78.81331 | 21977 ft | 345 kts | 333° |
| 2026-05-06 22:34 | -8.58289 | -78.82507 | 21983 ft | 343 kts | 333° |
| 2026-05-06 22:34 | -8.56206 | -78.83671 | 21981 ft | 345 kts | 333° |
| 2026-05-06 22:35 | -8.54104 | -78.84846 | 21969 ft | 346 kts | 333° |
| 2026-05-06 22:35 | -8.51981 | -78.86028 | 21958 ft | 346 kts | 333° |
| 2026-05-06 22:35 | -8.49865 | -78.87207 | 21949 ft | 345 kts | 333° |
| 2026-05-06 22:35 | -8.47767 | -78.88376 | 21950 ft | 345 kts | 333° |
| 2026-05-06 22:36 | -8.45675 | -78.89542 | 21962 ft | 341 kts | 333° |
| 2026-05-06 22:36 | -8.43600 | -78.90707 | 21970 ft | 340 kts | 333° |
| 2026-05-06 22:36 | -8.41532 | -78.91871 | 21960 ft | 340 kts | 333° |
| 2026-05-06 22:36 | -8.39459 | -78.93034 | 21990 ft | 339 kts | 333° |
| 2026-05-06 22:37 | -8.37359 | -78.94211 | 21960 ft | 342 kts | 333° |
| 2026-05-06 22:37 | -8.35286 | -78.95366 | 21949 ft | 342 kts | 333° |
| 2026-05-06 22:37 | -8.33198 | -78.96527 | 21946 ft | 342 kts | 333° |
| 2026-05-06 22:37 | -8.31100 | -78.97692 | 21931 ft | 342 kts | 333° |
| 2026-05-06 22:38 | -8.29026 | -78.98846 | 21930 ft | 342 kts | 333° |
| 2026-05-06 22:38 | -8.26943 | -79.00004 | 21924 ft | 343 kts | 333° |
| 2026-05-06 22:38 | -8.24925 | -79.01125 | 21921 ft | 343 kts | 333° |
| 2026-05-06 22:38 | -8.22838 | -79.02284 | 21925 ft | 343 kts | 333° |
| 2026-05-06 22:39 | -8.20723 | -79.03459 | 21927 ft | 343 kts | 333° |
| 2026-05-06 22:39 | -8.18703 | -79.04581 | 21937 ft | 340 kts | 333° |
| 2026-05-06 22:39 | -8.16795 | -79.05648 | 21937 ft | 338 kts | 333° |
| 2026-05-06 22:39 | -8.14995 | -79.06660 | 21930 ft | 335 kts | 333° |
| 2026-05-06 22:40 | -8.12922 | -79.07831 | 21940 ft | 336 kts | 333° |
| 2026-05-06 22:40 | -8.10873 | -79.08983 | 21935 ft | 339 kts | 333° |
| 2026-05-06 22:40 | -8.08770 | -79.10115 | 21926 ft | 340 kts | 337° |
| 2026-05-06 22:40 | -8.06504 | -79.10715 | 21947 ft | 334 kts | 354° |
| 2026-05-06 22:41 | -8.01823 | -79.11216 | 21934 ft | 338 kts | 355° |
| 2026-05-06 22:41 | -7.99483 | -79.11488 | 21936 ft | 338 kts | 355° |
| 2026-05-06 22:41 | -7.97140 | -79.11765 | 21938 ft | 339 kts | 355° |
| 2026-05-06 22:42 | -7.94781 | -79.12046 | 21935 ft | 340 kts | 355° |
| 2026-05-06 22:42 | -7.92403 | -79.12333 | 21941 ft | 340 kts | 355° |
| 2026-05-06 22:42 | -7.90064 | -79.12618 | 21952 ft | 340 kts | 355° |
| 2026-05-06 22:42 | -7.87687 | -79.12909 | 21945 ft | 341 kts | 355° |
| 2026-05-06 22:43 | -7.85333 | -79.13198 | 21943 ft | 341 kts | 355° |
| 2026-05-06 22:43 | -7.82965 | -79.13490 | 21970 ft | 340 kts | 355° |
| 2026-05-06 22:43 | -7.80584 | -79.13789 | 21963 ft | 341 kts | 355° |
| 2026-05-06 22:43 | -7.78217 | -79.14084 | 21956 ft | 341 kts | 355° |
| 2026-05-06 22:44 | -7.75863 | -79.14376 | 21947 ft | 341 kts | 355° |
| 2026-05-06 22:44 | -7.73470 | -79.14673 | 21944 ft | 340 kts | 355° |
| 2026-05-06 22:44 | -7.71116 | -79.14969 | 21992 ft | 340 kts | 355° |
| 2026-05-06 22:44 | -7.68769 | -79.15266 | 21980 ft | 341 kts | 355° |
| 2026-05-06 22:45 | -7.66402 | -79.15563 | 21977 ft | 341 kts | 355° |
| 2026-05-06 22:45 | -7.64025 | -79.15862 | 21996 ft | 340 kts | 355° |
| 2026-05-06 22:45 | -7.61689 | -79.16160 | 22012 ft | 340 kts | 354° |
| 2026-05-06 22:45 | -7.59319 | -79.16463 | 22040 ft | 339 kts | 354° |
| 2026-05-06 22:46 | -7.56958 | -79.16762 | 22026 ft | 340 kts | 355° |
| 2026-05-06 22:46 | -7.54618 | -79.17058 | 22040 ft | 338 kts | 355° |
| 2026-05-06 22:46 | -7.52262 | -79.17357 | 22040 ft | 338 kts | 355° |
| 2026-05-06 22:46 | -7.49934 | -79.17654 | 22057 ft | 337 kts | 355° |
| 2026-05-06 22:47 | -7.47601 | -79.17951 | 22087 ft | 337 kts | 354° |
| 2026-05-06 22:47 | -7.45250 | -79.18251 | 22100 ft | 335 kts | 355° |
| 2026-05-06 22:47 | -7.42956 | -79.18546 | 22112 ft | 335 kts | 355° |
| 2026-05-06 22:47 | -7.40615 | -79.18848 | 22102 ft | 336 kts | 355° |
| 2026-05-06 22:48 | -7.38292 | -79.19144 | 22092 ft | 337 kts | 354° |
| 2026-05-06 22:48 | -7.35975 | -79.19437 | 22098 ft | 336 kts | 354° |
| 2026-05-06 22:48 | -7.33637 | -79.19733 | 22100 ft | 336 kts | 355° |
| 2026-05-06 22:48 | -7.31299 | -79.20027 | 22094 ft | 333 kts | 355° |
| 2026-05-06 22:49 | -7.29020 | -79.20319 | 22100 ft | 332 kts | 355° |
| 2026-05-06 22:49 | -7.26703 | -79.20621 | 22108 ft | 331 kts | 355° |
| 2026-05-06 22:49 | -7.24439 | -79.20918 | 22114 ft | 329 kts | 355° |
| 2026-05-06 22:49 | -7.22173 | -79.21217 | 22114 ft | 328 kts | 354° |
| 2026-05-06 22:50 | -7.19881 | -79.21519 | 22124 ft | 328 kts | 355° |
| 2026-05-06 22:50 | -7.17608 | -79.21815 | 22116 ft | 328 kts | 355° |
| 2026-05-06 22:50 | -7.15335 | -79.22106 | 22117 ft | 328 kts | 355° |
| 2026-05-06 22:50 | -7.13067 | -79.22392 | 22125 ft | 329 kts | 355° |
| 2026-05-06 22:51 | -7.10771 | -79.22683 | 22149 ft | 327 kts | 355° |
| 2026-05-06 22:51 | -7.08519 | -79.22969 | 22185 ft | 325 kts | 354° |
| 2026-05-06 22:51 | -7.06263 | -79.23262 | 22178 ft | 325 kts | 355° |
| 2026-05-06 22:51 | -7.04003 | -79.23553 | 22165 ft | 327 kts | 355° |
| 2026-05-06 22:52 | -7.01736 | -79.23840 | 22149 ft | 330 kts | 355° |
| 2026-05-06 22:52 | -6.99449 | -79.24123 | 22144 ft | 332 kts | 355° |
| 2026-05-06 22:52 | -6.97149 | -79.24404 | 22146 ft | 332 kts | 355° |
| 2026-05-06 22:52 | -6.94844 | -79.24683 | 22148 ft | 333 kts | 355° |
| 2026-05-06 22:53 | -6.92533 | -79.24964 | 22110 ft | 335 kts | 355° |
| 2026-05-06 22:53 | -6.90194 | -79.25248 | 22120 ft | 335 kts | 355° |
| 2026-05-06 22:53 | -6.87895 | -79.25529 | 22128 ft | 334 kts | 355° |
| 2026-05-06 22:53 | -6.85572 | -79.25815 | 22137 ft | 335 kts | 355° |
| 2026-05-06 22:54 | -6.83269 | -79.26101 | 22149 ft | 335 kts | 355° |
| 2026-05-06 22:54 | -6.80920 | -79.26392 | 22145 ft | 334 kts | 355° |
| 2026-05-06 22:54 | -6.78598 | -79.26683 | 22145 ft | 334 kts | 355° |
| 2026-05-06 22:54 | -6.76299 | -79.26971 | 22147 ft | 335 kts | 355° |
| 2026-05-06 22:55 | -6.73967 | -79.27263 | 22135 ft | 335 kts | 355° |
| 2026-05-06 22:55 | -6.71643 | -79.27551 | 22117 ft | 335 kts | 355° |
| 2026-05-06 22:55 | -6.69323 | -79.27840 | 22147 ft | 334 kts | 355° |
| 2026-05-06 22:55 | -6.67005 | -79.28132 | 22153 ft | 334 kts | 355° |
| 2026-05-06 22:56 | -6.64676 | -79.28425 | 22160 ft | 335 kts | 355° |
| 2026-05-06 22:56 | -6.62377 | -79.28712 | 22157 ft | 335 kts | 356° |
| 2026-05-06 22:56 | -6.60047 | -79.29002 | 22145 ft | 335 kts | 355° |
| 2026-05-06 22:56 | -6.57741 | -79.29293 | 22158 ft | 335 kts | 355° |
| 2026-05-06 22:57 | -6.55387 | -79.29591 | 22166 ft | 335 kts | 355° |
| 2026-05-06 22:57 | -6.53072 | -79.29882 | 22176 ft | 335 kts | 355° |
| 2026-05-06 22:57 | -6.50775 | -79.30170 | 22181 ft | 333 kts | 355° |
| 2026-05-06 22:57 | -6.48452 | -79.30464 | 22196 ft | 332 kts | 355° |
| 2026-05-06 22:58 | -6.46167 | -79.30759 | 22216 ft | 332 kts | 355° |
| 2026-05-06 22:58 | -6.43873 | -79.31054 | 22241 ft | 330 kts | 355° |
| 2026-05-06 22:58 | -6.41566 | -79.31351 | 22269 ft | 330 kts | 355° |
| 2026-05-06 22:58 | -6.39281 | -79.31646 | 22296 ft | 330 kts | 355° |
| 2026-05-06 22:59 | -6.37000 | -79.31940 | 22297 ft | 332 kts | 355° |
| 2026-05-06 22:59 | -6.34710 | -79.32230 | 22317 ft | 331 kts | 355° |
| 2026-05-06 22:59 | -6.32422 | -79.32518 | 22335 ft | 331 kts | 355° |
| 2026-05-06 22:59 | -6.30121 | -79.32808 | 22352 ft | 331 kts | 356° |
| 2026-05-06 23:00 | -6.27815 | -79.33096 | 22382 ft | 332 kts | 356° |
| 2026-05-06 23:00 | -6.25530 | -79.33379 | 22398 ft | 332 kts | 356° |
| 2026-05-06 23:00 | -6.23232 | -79.33665 | 22393 ft | 332 kts | 356° |
| 2026-05-06 23:00 | -6.20940 | -79.33951 | 22376 ft | 332 kts | 355° |
| 2026-05-06 23:01 | -6.18633 | -79.34241 | 22353 ft | 333 kts | 355° |
| 2026-05-06 23:01 | -6.16315 | -79.34531 | 22346 ft | 333 kts | 356° |
| 2026-05-06 23:01 | -6.14001 | -79.34821 | 22336 ft | 333 kts | 356° |
| 2026-05-06 23:01 | -6.11693 | -79.35108 | 22332 ft | 333 kts | 356° |
| 2026-05-06 23:02 | -6.09402 | -79.35393 | 22319 ft | 334 kts | 356° |
| 2026-05-06 23:02 | -6.07072 | -79.35682 | 22301 ft | 332 kts | 356° |
| 2026-05-06 23:02 | -6.04771 | -79.35970 | 22284 ft | 333 kts | 356° |
| 2026-05-06 23:02 | -6.02465 | -79.36260 | 22279 ft | 334 kts | 356° |
| 2026-05-06 23:03 | -6.00143 | -79.36550 | 22262 ft | 335 kts | 356° |
| 2026-05-06 23:03 | -5.97846 | -79.36835 | 22254 ft | 334 kts | 356° |
| 2026-05-06 23:03 | -5.95514 | -79.37125 | 22260 ft | 333 kts | 356° |
| 2026-05-06 23:03 | -5.93222 | -79.37412 | 22272 ft | 334 kts | 356° |
| 2026-05-06 23:04 | -5.90896 | -79.37701 | 22270 ft | 335 kts | 356° |
| 2026-05-06 23:04 | -5.88574 | -79.37992 | 22275 ft | 334 kts | 356° |
| 2026-05-06 23:04 | -5.86270 | -79.38282 | 22290 ft | 334 kts | 356° |
| 2026-05-06 23:04 | -5.83962 | -79.38572 | 22300 ft | 334 kts | 356° |
| 2026-05-06 23:05 | -5.81651 | -79.38863 | 22307 ft | 334 kts | 356° |
| 2026-05-06 23:05 | -5.79359 | -79.39153 | 22315 ft | 333 kts | 356° |
| 2026-05-06 23:05 | -5.77094 | -79.39440 | 22317 ft | 329 kts | 356° |
| 2026-05-06 23:05 | -5.74850 | -79.39729 | 22325 ft | 330 kts | 356° |
| 2026-05-06 23:06 | -5.72553 | -79.40027 | 22337 ft | 330 kts | 356° |
| 2026-05-06 23:06 | -5.70297 | -79.40315 | 22351 ft | 328 kts | 356° |
| 2026-05-06 23:06 | -5.68063 | -79.40603 | 22353 ft | 325 kts | 355° |
| 2026-05-06 23:06 | -5.65821 | -79.40896 | 22361 ft | 327 kts | 356° |
| 2026-05-06 23:07 | -5.63549 | -79.41187 | 22364 ft | 328 kts | 356° |
| 2026-05-06 23:07 | -5.61324 | -79.41468 | 22376 ft | 327 kts | 356° |
| 2026-05-06 23:07 | -5.59063 | -79.41754 | 22383 ft | 326 kts | 356° |
| 2026-05-06 23:07 | -5.56819 | -79.42040 | 22391 ft | 329 kts | 356° |
| 2026-05-06 23:08 | -5.54532 | -79.42325 | 22396 ft | 330 kts | 356° |
| 2026-05-06 23:08 | -5.52242 | -79.42606 | 22403 ft | 330 kts | 356° |
| 2026-05-06 23:08 | -5.49966 | -79.42888 | 22408 ft | 329 kts | 356° |
| 2026-05-06 23:08 | -5.47724 | -79.43168 | 22403 ft | 328 kts | 356° |
| 2026-05-06 23:09 | -5.45460 | -79.43453 | 22398 ft | 329 kts | 356° |
| 2026-05-06 23:09 | -5.43205 | -79.43737 | 22389 ft | 328 kts | 356° |
| 2026-05-06 23:09 | -5.40965 | -79.44019 | 22386 ft | 329 kts | 356° |
| 2026-05-06 23:09 | -5.38686 | -79.44303 | 22379 ft | 329 kts | 356° |
| 2026-05-06 23:10 | -5.36426 | -79.44583 | 22373 ft | 329 kts | 356° |
| 2026-05-06 23:10 | -5.34144 | -79.44868 | 22367 ft | 330 kts | 356° |
| 2026-05-06 23:10 | -5.31880 | -79.45151 | 22357 ft | 329 kts | 356° |
| 2026-05-06 23:10 | -5.29611 | -79.45435 | 22353 ft | 329 kts | 356° |
| 2026-05-06 23:11 | -5.27324 | -79.45722 | 22347 ft | 329 kts | 356° |
| 2026-05-06 23:11 | -5.25065 | -79.46004 | 22344 ft | 329 kts | 356° |
| 2026-05-06 23:11 | -5.22776 | -79.46291 | 22345 ft | 330 kts | 356° |
| 2026-05-06 23:11 | -5.20508 | -79.46574 | 22356 ft | 330 kts | 356° |
| 2026-05-06 23:12 | -5.18239 | -79.46859 | 22370 ft | 329 kts | 356° |
| 2026-05-06 23:12 | -5.15961 | -79.47146 | 22378 ft | 330 kts | 355° |
| 2026-05-06 23:12 | -5.13685 | -79.47430 | 22383 ft | 329 kts | 356° |
| 2026-05-06 23:12 | -5.11401 | -79.47716 | 22395 ft | 331 kts | 356° |
| 2026-05-06 23:13 | -5.09118 | -79.47999 | 22410 ft | 331 kts | 356° |
| 2026-05-06 23:13 | -5.06846 | -79.48281 | 22431 ft | 330 kts | 356° |
| 2026-05-06 23:13 | -5.04544 | -79.48567 | 22444 ft | 330 kts | 356° |
| 2026-05-06 23:13 | -5.02245 | -79.48852 | 22461 ft | 330 kts | 356° |
| 2026-05-06 23:14 | -4.99971 | -79.49136 | 22476 ft | 332 kts | 356° |
| 2026-05-06 23:14 | -4.97675 | -79.49420 | 22478 ft | 331 kts | 356° |
| 2026-05-06 23:14 | -4.95380 | -79.49707 | 22479 ft | 330 kts | 356° |
| 2026-05-06 23:14 | -4.93100 | -79.49995 | 22481 ft | 330 kts | 356° |
| 2026-05-06 23:15 | -4.90817 | -79.50283 | 22471 ft | 330 kts | 356° |
| 2026-05-06 23:15 | -4.88522 | -79.50571 | 22467 ft | 332 kts | 356° |
| 2026-05-06 23:15 | -4.86221 | -79.50857 | 22461 ft | 332 kts | 356° |
| 2026-05-06 23:15 | -4.83888 | -79.51148 | 22457 ft | 333 kts | 356° |
| 2026-05-06 23:16 | -4.81616 | -79.51428 | 22447 ft | 333 kts | 356° |
| 2026-05-06 23:16 | -4.79296 | -79.51715 | 22440 ft | 335 kts | 356° |
| 2026-05-06 23:16 | -4.76966 | -79.52000 | 22430 ft | 333 kts | 356° |
| 2026-05-06 23:16 | -4.74823 | -79.52276 | 22403 ft | 308 kts | 355° |
| 2026-05-06 23:17 | -4.72812 | -79.52586 | 22367 ft | 285 kts | 354° |
| 2026-05-06 23:17 | -4.70930 | -79.52920 | 22171 ft | 273 kts | 354° |
| 2026-05-06 23:17 | -4.69087 | -79.53256 | 21771 ft | 269 kts | 354° |
| 2026-05-06 23:17 | -4.67304 | -79.53566 | 21373 ft | 266 kts | 354° |
| 2026-05-06 23:18 | -4.65571 | -79.53848 | 20980 ft | 262 kts | 355° |
| 2026-05-06 23:18 | -4.63758 | -79.54130 | 20565 ft | 262 kts | 355° |
| 2026-05-06 23:18 | -4.61968 | -79.54394 | 20151 ft | 260 kts | 355° |
| 2026-05-06 23:18 | -4.60189 | -79.54649 | 19736 ft | 258 kts | 355° |
| 2026-05-06 23:19 | -4.58469 | -79.54887 | 19327 ft | 257 kts | 356° |
| 2026-05-06 23:19 | -4.56770 | -79.55119 | 18921 ft | 256 kts | 356° |
| 2026-05-06 23:19 | -4.53410 | -79.55563 | 18112 ft | 254 kts | 355° |
| 2026-05-06 23:20 | -4.51690 | -79.55785 | 17693 ft | 253 kts | 355° |
| 2026-05-06 23:20 | -4.50026 | -79.56159 | 17274 ft | 255 kts | 344° |
| 2026-05-06 23:20 | -4.48404 | -79.56829 | 16872 ft | 256 kts | 339° |
| 2026-05-06 23:20 | -4.46747 | -79.57554 | 16457 ft | 257 kts | 339° |
| 2026-05-06 23:21 | -4.45097 | -79.58254 | 16054 ft | 258 kts | 340° |
| 2026-05-06 23:21 | -4.43442 | -79.58948 | 15650 ft | 260 kts | 340° |
| 2026-05-06 23:21 | -4.41757 | -79.59650 | 15240 ft | 261 kts | 340° |
| 2026-05-06 23:21 | -4.40075 | -79.60345 | 14834 ft | 261 kts | 341° |
| 2026-05-06 23:22 | -4.38391 | -79.61041 | 14441 ft | 259 kts | 341° |
| 2026-05-06 23:22 | -4.36692 | -79.61751 | 14294 ft | 268 kts | 341° |
| 2026-05-06 23:22 | -4.34920 | -79.62470 | 14238 ft | 279 kts | 341° |
| 2026-05-06 23:22 | -4.33057 | -79.63196 | 14218 ft | 286 kts | 342° |
| 2026-05-06 23:23 | -4.31189 | -79.63917 | 14214 ft | 290 kts | 342° |
| 2026-05-06 23:23 | -4.29285 | -79.64657 | 14220 ft | 290 kts | 342° |
| 2026-05-06 23:23 | -4.27394 | -79.65404 | 14215 ft | 289 kts | 341° |
| 2026-05-06 23:23 | -4.25526 | -79.66159 | 14213 ft | 290 kts | 341° |
| 2026-05-06 23:24 | -4.23644 | -79.66930 | 14210 ft | 290 kts | 341° |
| 2026-05-06 23:24 | -4.21774 | -79.67701 | 14201 ft | 290 kts | 341° |
| 2026-05-06 23:24 | -4.19914 | -79.68475 | 14200 ft | 289 kts | 340° |
| 2026-05-06 23:24 | -4.18052 | -79.69257 | 14197 ft | 289 kts | 341° |
| 2026-05-06 23:25 | -4.16184 | -79.70045 | 14193 ft | 287 kts | 341° |
| 2026-05-06 23:25 | -4.14341 | -79.70826 | 14178 ft | 286 kts | 340° |
| 2026-05-06 23:25 | -4.12511 | -79.71605 | 14174 ft | 285 kts | 340° |
| 2026-05-06 23:25 | -4.10669 | -79.72390 | 14181 ft | 286 kts | 340° |
| 2026-05-06 23:26 | -4.08850 | -79.73164 | 14173 ft | 285 kts | 340° |
| 2026-05-06 23:26 | -4.06990 | -79.73953 | 14166 ft | 286 kts | 340° |
| 2026-05-06 23:26 | -4.05139 | -79.74736 | 14147 ft | 286 kts | 340° |
| 2026-05-06 23:26 | -4.03307 | -79.75510 | 14117 ft | 287 kts | 340° |
| 2026-05-06 23:27 | -4.01461 | -79.76287 | 14106 ft | 287 kts | 341° |
| 2026-05-06 23:27 | -3.99630 | -79.77058 | 14111 ft | 285 kts | 341° |
| 2026-05-06 23:27 | -3.97783 | -79.77840 | 14121 ft | 285 kts | 341° |
| 2026-05-06 23:27 | -3.95958 | -79.78612 | 14105 ft | 286 kts | 341° |
| 2026-05-06 23:28 | -3.94124 | -79.79388 | 14070 ft | 278 kts | 340° |
| 2026-05-06 23:28 | -3.92421 | -79.80140 | 14069 ft | 257 kts | 339° |
| 2026-05-06 23:28 | -3.90893 | -79.80864 | 13864 ft | 249 kts | 339° |
| 2026-05-06 23:28 | -3.89336 | -79.81619 | 13507 ft | 244 kts | 339° |
| 2026-05-06 23:29 | -3.87821 | -79.82345 | 13140 ft | 240 kts | 339° |
| 2026-05-06 23:29 | -3.86340 | -79.83040 | 12786 ft | 235 kts | 339° |
| 2026-05-06 23:29 | -3.84857 | -79.83727 | 12435 ft | 230 kts | 340° |
| 2026-05-06 23:29 | -3.83420 | -79.84385 | 12080 ft | 227 kts | 340° |
| 2026-05-06 23:30 | -3.81971 | -79.85041 | 11725 ft | 224 kts | 340° |
| 2026-05-06 23:30 | -3.80557 | -79.85674 | 11373 ft | 221 kts | 340° |
| 2026-05-06 23:30 | -3.79165 | -79.86294 | 11021 ft | 218 kts | 340° |
| 2026-05-06 23:30 | -3.77792 | -79.86902 | 10664 ft | 215 kts | 340° |
| 2026-05-06 23:31 | -3.76431 | -79.87502 | 10291 ft | 212 kts | 340° |
| 2026-05-06 23:31 | -3.75103 | -79.88084 | 9926 ft | 208 kts | 340° |
| 2026-05-06 23:31 | -3.74045 | -79.88546 | 9647 ft | 207 kts | 340° |
| 2026-05-06 23:31 | -3.72629 | -79.89162 | 9278 ft | 203 kts | 339° |
| 2026-05-06 23:32 | -3.71324 | -79.89726 | 8922 ft | 201 kts | 340° |
| 2026-05-06 23:32 | -3.69057 | -79.90697 | 8289 ft | 197 kts | 339° |
| 2026-05-06 23:32 | -3.67740 | -79.91256 | 7907 ft | 194 kts | 339° |
| 2026-05-06 23:33 | -3.65199 | -79.92336 | 7141 ft | 190 kts | 337° |
| 2026-05-06 23:33 | -3.63978 | -79.92852 | 6785 ft | 189 kts | 337° |
| 2026-05-06 23:33 | -3.62775 | -79.93360 | 6447 ft | 188 kts | 336° |
| 2026-05-06 23:34 | -3.61614 | -79.93850 | 6279 ft | 189 kts | 336° |
| 2026-05-06 23:34 | -3.60570 | -79.94279 | 6171 ft | 213 kts | 338° |